createdAt,value
2022-10-31T00:04:08.728Z,11.60
2022-10-31T00:09:10.526Z,11.33
2022-10-31T00:14:11.942Z,11.16
2022-10-31T00:19:13.421Z,10.95
2022-10-31T00:24:14.944Z,11.06
2022-10-31T00:29:16.344Z,11.07
2022-10-31T00:34:17.732Z,10.98
2022-10-31T00:39:19.118Z,10.90
2022-10-31T00:44:20.897Z,10.85
2022-10-31T00:49:22.423Z,10.88
2022-10-31T00:54:24.510Z,10.85
2022-10-31T00:59:25.989Z,10.72
2022-10-31T01:04:27.425Z,10.72
2022-10-31T01:09:30.284Z,10.67
2022-10-31T01:14:31.696Z,10.77
2022-10-31T01:19:33.232Z,10.62
2022-10-31T01:24:34.865Z,10.57
2022-10-31T01:29:37.187Z,10.47
2022-10-31T01:34:38.585Z,10.43
2022-10-31T01:39:39.997Z,10.44
2022-10-31T01:44:41.358Z,10.36
2022-10-31T01:50:03.446Z,10.39
2022-10-31T01:55:17.184Z,10.38
2022-10-31T02:00:20.945Z,10.29
2022-10-31T02:05:26.612Z,10.29
2022-10-31T02:10:31.255Z,10.29
2022-10-31T02:15:33.855Z,10.21
2022-10-31T02:20:50.229Z,10.32
2022-10-31T02:26:18.781Z,10.30
2022-10-31T02:31:33.776Z,10.26
2022-10-31T02:36:47.016Z,10.09
2022-10-31T02:42:04.927Z,9.78
2022-10-31T02:47:12.220Z,9.81
2022-10-31T02:52:34.840Z,9.80
2022-10-31T02:57:41.083Z,9.82
2022-10-31T03:02:48.565Z,9.76
2022-10-31T03:08:07.436Z,9.88
2022-10-31T03:13:13.695Z,9.77
2022-10-31T03:18:29.066Z,9.60
2022-10-31T03:23:32.945Z,9.54
2022-10-31T03:28:45.196Z,9.46
2022-10-31T03:33:50.141Z,9.41
2022-10-31T03:38:52.285Z,9.50
2022-10-31T03:43:58.921Z,9.37
2022-10-31T03:49:01.427Z,9.27
2022-10-31T03:54:14.665Z,9.29
2022-10-31T03:59:22.306Z,9.19
2022-10-31T04:04:27.253Z,9.17
2022-10-31T04:09:33.217Z,9.19
2022-10-31T04:14:38.196Z,9.17
2022-10-31T04:19:39.760Z,9.22
2022-10-31T04:24:41.931Z,9.13
2022-10-31T04:29:48.364Z,9.18
2022-10-31T04:34:52.418Z,9.12
2022-10-31T04:39:53.867Z,9.03
2022-10-31T04:45:16.872Z,8.98
2022-10-31T04:50:23.370Z,8.96
2022-10-31T04:55:25.808Z,8.96
2022-10-31T05:00:52.908Z,9.00
2022-10-31T05:05:54.407Z,9.11
2022-10-31T05:10:57.360Z,8.97
2022-10-31T05:16:02.037Z,8.85
2022-10-31T05:21:21.764Z,8.91
2022-10-31T05:26:26.920Z,8.84
2022-10-31T05:31:30.158Z,8.72
2022-10-31T05:36:31.680Z,8.72
2022-10-31T05:41:35.378Z,8.80
2022-10-31T05:46:44.439Z,8.87
2022-10-31T05:52:04.279Z,8.92
2022-10-31T05:57:15.304Z,8.88
2022-10-31T06:02:17.312Z,8.88
2022-10-31T06:07:37.021Z,8.91
2022-10-31T06:12:39.106Z,8.93
2022-10-31T06:18:03.833Z,9.03
2022-10-31T06:23:09.326Z,8.83
2022-10-31T06:28:10.828Z,8.89
2022-10-31T06:33:35.122Z,8.94
2022-10-31T06:38:37.091Z,9.03
2022-10-31T06:43:42.429Z,9.14
2022-10-31T06:49:07.265Z,9.17
2022-10-31T06:54:17.600Z,9.06
2022-10-31T06:59:19.680Z,9.17
2022-10-31T07:04:41.062Z,9.44
2022-10-31T07:09:43.425Z,9.61
2022-10-31T07:14:46.612Z,9.73
2022-10-31T07:19:48.532Z,9.89
2022-10-31T07:24:52.189Z,10.18
2022-10-31T07:29:53.588Z,10.47
2022-10-31T07:34:55.036Z,10.66
2022-10-31T07:39:58.489Z,10.69
2022-10-31T07:45:00.080Z,10.87
2022-10-31T07:50:23.462Z,11.13
2022-10-31T07:55:57.184Z,11.44
2022-10-31T08:01:04.239Z,11.80
2022-10-31T08:06:14.758Z,12.04
2022-10-31T08:11:34.651Z,12.25
2022-10-31T08:16:37.188Z,12.37
2022-10-31T08:21:41.220Z,12.37
2022-10-31T08:26:44.402Z,12.44
2022-10-31T08:31:46.954Z,12.51
2022-10-31T08:37:08.299Z,12.74
2022-10-31T08:42:16.453Z,13.09
2022-10-31T08:47:18.201Z,13.30
2022-10-31T08:52:19.718Z,13.41
2022-10-31T08:57:23.001Z,13.49
2022-10-31T09:02:24.640Z,13.72
2022-10-31T09:07:31.104Z,14.02
2022-10-31T09:12:33.804Z,14.29
2022-10-31T09:17:48.057Z,14.51
2022-10-31T09:22:58.659Z,14.59
2022-10-31T09:28:01.945Z,14.56
2022-10-31T09:33:06.683Z,14.71
2022-10-31T09:38:14.815Z,14.84
2022-10-31T09:43:34.619Z,15.10
2022-10-31T09:49:06.733Z,15.37
2022-10-31T09:54:36.618Z,15.76
2022-10-31T09:59:41.498Z,16.00
2022-10-31T10:04:52.422Z,16.28
2022-10-31T10:09:55.695Z,16.69
2022-10-31T10:15:37.042Z,17.18
2022-10-31T10:20:56.949Z,17.67
2022-10-31T10:26:18.075Z,18.35
2022-10-31T10:31:28.313Z,19.35
2022-10-31T10:36:47.189Z,20.26
2022-10-31T10:41:51.186Z,21.14
2022-10-31T10:47:00.101Z,20.87
2022-10-31T10:52:50.162Z,19.79
2022-10-31T10:57:58.411Z,19.01
2022-10-31T11:03:00.503Z,18.55
2022-10-31T11:08:02.825Z,18.17
2022-10-31T11:13:24.536Z,17.68
2022-10-31T11:18:28.775Z,17.46
2022-10-31T11:23:30.946Z,17.43
2022-10-31T11:28:34.336Z,17.34
2022-10-31T11:33:47.048Z,17.30
2022-10-31T11:38:49.115Z,17.26
2022-10-31T11:44:00.557Z,17.25
2022-10-31T11:49:03.872Z,17.39
2022-10-31T11:54:06.412Z,17.49
2022-10-31T11:59:19.618Z,17.54
2022-10-31T12:04:39.875Z,17.63
2022-10-31T12:09:42.243Z,17.85
2022-10-31T12:15:01.933Z,17.83
2022-10-31T12:20:31.296Z,17.77
2022-10-31T12:25:42.439Z,21.32
2022-10-31T12:31:00.036Z,24.89
2022-10-31T12:36:27.690Z,27.76
2022-10-31T12:41:46.859Z,30.20
2022-10-31T12:47:25.291Z,32.13
2022-10-31T12:52:49.560Z,31.76
2022-10-31T12:58:04.267Z,30.95
2022-10-31T13:03:27.359Z,31.42
2022-10-31T13:08:48.827Z,31.94
2022-10-31T13:14:06.698Z,31.15
2022-10-31T13:19:26.446Z,30.63
2022-10-31T13:24:36.036Z,29.87
2022-10-31T13:29:47.765Z,28.83
2022-10-31T13:34:55.000Z,27.55
2022-10-31T13:40:22.820Z,26.13
2022-10-31T13:45:25.999Z,25.86
2022-10-31T13:50:30.036Z,25.63
2022-10-31T13:55:44.358Z,25.05
2022-10-31T14:00:45.991Z,24.78
2022-10-31T14:05:55.198Z,24.17
2022-10-31T14:10:57.162Z,23.55
2022-10-31T14:16:01.144Z,22.97
2022-10-31T14:21:13.704Z,22.33
2022-10-31T14:26:23.654Z,21.81
2022-10-31T14:31:28.095Z,21.50
2022-10-31T14:36:35.369Z,21.14
2022-10-31T14:41:55.261Z,20.90
2022-10-31T14:47:17.009Z,20.77
2022-10-31T14:52:19.887Z,20.47
2022-10-31T14:57:35.489Z,20.14
2022-10-31T15:02:50.819Z,19.72
2022-10-31T15:07:53.868Z,19.47
2022-10-31T15:12:55.270Z,19.25
2022-10-31T15:17:59.950Z,18.93
2022-10-31T15:23:01.668Z,18.59
2022-10-31T15:28:14.683Z,18.34
2022-10-31T15:33:36.764Z,18.07
2022-10-31T15:38:39.621Z,17.73
2022-10-31T15:43:41.094Z,17.62
2022-10-31T15:48:47.705Z,17.49
2022-10-31T15:53:52.445Z,17.30
2022-10-31T15:58:55.454Z,16.94
2022-10-31T16:04:13.193Z,16.72
2022-10-31T16:09:25.035Z,16.62
2022-10-31T16:14:29.777Z,16.39
2022-10-31T16:19:34.687Z,16.08
2022-10-31T16:24:49.224Z,15.93
2022-10-31T16:29:50.682Z,15.88
2022-10-31T16:35:10.799Z,15.83
2022-10-31T16:40:13.666Z,15.54
2022-10-31T16:45:24.304Z,15.09
2022-10-31T16:50:27.877Z,15.03
2022-10-31T16:55:29.423Z,14.87
2022-10-31T17:00:30.880Z,14.87
2022-10-31T17:05:32.258Z,14.69
2022-10-31T17:10:34.255Z,14.61
2022-10-31T17:15:49.804Z,14.66
2022-10-31T17:20:55.557Z,14.44
2022-10-31T17:25:57.301Z,14.30
2022-10-31T17:30:58.685Z,14.20
2022-10-31T17:36:02.897Z,14.18
2022-10-31T17:41:11.003Z,14.14
2022-10-31T17:46:13.035Z,13.99
2022-10-31T17:51:14.469Z,13.85
2022-10-31T17:56:15.926Z,13.67
2022-10-31T18:01:18.790Z,13.69
2022-10-31T18:06:20.331Z,13.58
2022-10-31T18:11:21.921Z,13.51
2022-10-31T18:16:23.991Z,13.38
2022-10-31T18:21:25.706Z,13.44
2022-10-31T18:26:27.749Z,13.33
2022-10-31T18:31:29.441Z,13.17
2022-10-31T18:36:30.979Z,13.02
2022-10-31T18:41:32.895Z,13.03
2022-10-31T18:46:35.357Z,13.00
2022-10-31T18:51:36.796Z,13.05
2022-10-31T18:56:38.213Z,13.03
2022-10-31T19:01:40.130Z,13.01
2022-10-31T19:06:41.691Z,12.90
2022-10-31T19:11:43.108Z,12.83
2022-10-31T19:16:44.544Z,12.62
2022-10-31T19:21:46.350Z,12.54
2022-10-31T19:26:48.352Z,12.54
2022-10-31T19:31:49.765Z,12.57
2022-10-31T19:36:51.169Z,12.54
2022-10-31T19:41:52.574Z,12.71
2022-10-31T19:46:54.404Z,12.84
2022-10-31T19:51:55.872Z,12.97
2022-10-31T19:56:57.283Z,12.89
2022-10-31T20:01:58.729Z,12.87
2022-10-31T20:07:00.166Z,12.79
2022-10-31T20:12:02.808Z,12.76
2022-10-31T20:17:04.524Z,12.79
2022-10-31T20:22:05.941Z,12.80
2022-10-31T20:27:07.449Z,12.67
2022-10-31T20:32:08.849Z,12.58
2022-10-31T20:37:10.272Z,12.55
2022-10-31T20:42:11.664Z,12.50
2022-10-31T20:47:13.100Z,12.40
2022-10-31T20:52:14.521Z,12.32
2022-10-31T20:57:15.949Z,12.37
2022-10-31T21:02:17.467Z,12.34
2022-10-31T21:07:18.929Z,12.35
2022-10-31T21:12:20.309Z,12.23
2022-10-31T21:17:22.919Z,12.02
2022-10-31T21:22:24.339Z,11.87
2022-10-31T21:27:25.880Z,11.85
2022-10-31T21:32:27.293Z,11.91
2022-10-31T21:37:28.676Z,11.94
2022-10-31T21:42:30.058Z,11.83
2022-10-31T21:47:31.457Z,11.76
2022-10-31T21:52:32.869Z,11.74
2022-10-31T21:57:34.289Z,11.59
2022-10-31T22:02:36.503Z,11.70
2022-10-31T22:07:37.880Z,11.65
2022-10-31T22:12:39.249Z,11.54
2022-10-31T22:17:40.707Z,11.56
2022-10-31T22:22:42.113Z,11.55
2022-10-31T22:27:43.527Z,11.44
2022-10-31T22:32:44.923Z,11.46
2022-10-31T22:37:46.353Z,11.39
2022-10-31T22:42:47.751Z,11.28
2022-10-31T22:47:49.156Z,11.17
2022-10-31T22:52:50.572Z,11.35
2022-10-31T22:57:51.966Z,11.27
2022-10-31T23:02:53.324Z,11.07
2022-10-31T23:07:54.711Z,11.06
2022-10-31T23:12:56.109Z,11.12
2022-10-31T23:17:57.508Z,10.94
2022-10-31T23:22:59.330Z,10.87
2022-10-31T23:28:00.976Z,10.85
2022-10-31T23:33:02.667Z,10.97
2022-10-31T23:38:04.511Z,10.92
2022-10-31T23:43:06.981Z,10.84
2022-10-31T23:48:08.412Z,10.80
2022-10-31T23:53:09.804Z,10.89
2022-10-31T23:58:11.200Z,11.00
